sensor_id;sensor_type;location;lat;lon;timestamp;pressure;altitude;pressure_sealevel;temperature;humidity
58662;BME280;44432;49.786;22.760;2023-06-04T00:02:06;99855.38;;;8.60;66.21
58662;BME280;44432;49.786;22.760;2023-06-04T00:04:37;99852.55;;;8.54;66.30
58662;BME280;44432;49.786;22.760;2023-06-04T00:07:07;99854.39;;;8.46;66.30
58662;BME280;44432;49.786;22.760;2023-06-04T00:09:38;99851.33;;;8.40;66.22
58662;BME280;44432;49.786;22.760;2023-06-04T00:12:09;99848.70;;;8.34;66.54
58662;BME280;44432;49.786;22.760;2023-06-04T00:14:40;99850.11;;;8.26;66.76
58662;BME280;44432;49.786;22.760;2023-06-04T00:17:11;99844.84;;;8.19;66.86
58662;BME280;44432;49.786;22.760;2023-06-04T00:19:41;99838.48;;;8.12;67.26
58662;BME280;44432;49.786;22.760;2023-06-04T00:22:12;99839.94;;;8.09;67.76
58662;BME280;44432;49.786;22.760;2023-06-04T00:24:42;99839.55;;;8.05;67.39
58662;BME280;44432;49.786;22.760;2023-06-04T00:27:13;99840.91;;;7.98;67.73
58662;BME280;44432;49.786;22.760;2023-06-04T00:29:44;99834.97;;;7.92;68.34
58662;BME280;44432;49.786;22.760;2023-06-04T00:32:14;99834.77;;;7.89;67.93
58662;BME280;44432;49.786;22.760;2023-06-04T00:34:51;99831.77;;;7.85;68.42
58662;BME280;44432;49.786;22.760;2023-06-04T00:37:23;99825.39;;;7.81;68.01
58662;BME280;44432;49.786;22.760;2023-06-04T00:39:54;99827.37;;;7.77;68.64
58662;BME280;44432;49.786;22.760;2023-06-04T00:42:24;99830.08;;;7.74;68.24
58662;BME280;44432;49.786;22.760;2023-06-04T00:44:55;99835.48;;;7.71;68.38
58662;BME280;44432;49.786;22.760;2023-06-04T00:47:26;99834.21;;;7.67;68.48
58662;BME280;44432;49.786;22.760;2023-06-04T00:49:58;99826.77;;;7.62;68.47
58662;BME280;44432;49.786;22.760;2023-06-04T00:52:30;99824.30;;;7.61;68.63
58662;BME280;44432;49.786;22.760;2023-06-04T00:55:01;99820.92;;;7.60;68.65
58662;BME280;44432;49.786;22.760;2023-06-04T00:57:32;99821.59;;;7.59;69.09
58662;BME280;44432;49.786;22.760;2023-06-04T01:00:03;99825.45;;;7.57;69.39
58662;BME280;44432;49.786;22.760;2023-06-04T01:02:36;99826.09;;;7.54;69.67
58662;BME280;44432;49.786;22.760;2023-06-04T01:05:14;99821.04;;;7.51;69.74
58662;BME280;44432;49.786;22.760;2023-06-04T01:07:48;99815.44;;;7.49;69.50
58662;BME280;44432;49.786;22.760;2023-06-04T01:10:18;99811.34;;;7.46;69.89
58662;BME280;44432;49.786;22.760;2023-06-04T01:12:51;99816.00;;;7.42;70.23
58662;BME280;44432;49.786;22.760;2023-06-04T01:15:22;99818.80;;;7.37;70.23
58662;BME280;44432;49.786;22.760;2023-06-04T01:17:56;99818.41;;;7.33;70.26
58662;BME280;44432;49.786;22.760;2023-06-04T01:20:36;99816.00;;;7.29;70.51
58662;BME280;44432;49.786;22.760;2023-06-04T01:23:23;99814.71;;;7.25;70.27
58662;BME280;44432;49.786;22.760;2023-06-04T01:25:58;99816.81;;;7.22;70.36
58662;BME280;44432;49.786;22.760;2023-06-04T01:28:33;99816.27;;;7.16;70.45
58662;BME280;44432;49.786;22.760;2023-06-04T01:31:06;99816.67;;;7.14;70.69
58662;BME280;44432;49.786;22.760;2023-06-04T01:33:38;99818.70;;;7.11;70.80
58662;BME280;44432;49.786;22.760;2023-06-04T01:36:09;99818.36;;;7.08;71.16
58662;BME280;44432;49.786;22.760;2023-06-04T01:38:41;99817.09;;;7.04;71.21
58662;BME280;44432;49.786;22.760;2023-06-04T01:41:12;99817.61;;;7.00;71.27
58662;BME280;44432;49.786;22.760;2023-06-04T01:43:42;99815.58;;;6.96;71.58
58662;BME280;44432;49.786;22.760;2023-06-04T01:46:13;99812.61;;;6.93;71.61
58662;BME280;44432;49.786;22.760;2023-06-04T01:48:44;99822.02;;;6.92;71.92
58662;BME280;44432;49.786;22.760;2023-06-04T01:51:18;99820.32;;;6.88;71.73
58662;BME280;44432;49.786;22.760;2023-06-04T01:53:49;99821.95;;;6.84;71.92
58662;BME280;44432;49.786;22.760;2023-06-04T01:56:20;99827.39;;;6.81;71.84
58662;BME280;44432;49.786;22.760;2023-06-04T01:58:51;99824.95;;;6.78;71.90
58662;BME280;44432;49.786;22.760;2023-06-04T02:01:21;99822.29;;;6.79;71.57
58662;BME280;44432;49.786;22.760;2023-06-04T02:03:52;99820.06;;;6.78;71.93
58662;BME280;44432;49.786;22.760;2023-06-04T02:06:23;99816.16;;;6.77;72.11
58662;BME280;44432;49.786;22.760;2023-06-04T02:08:54;99817.85;;;6.74;72.29
58662;BME280;44432;49.786;22.760;2023-06-04T02:11:24;99814.42;;;6.72;72.38
58662;BME280;44432;49.786;22.760;2023-06-04T02:13:55;99815.41;;;6.71;72.85
58662;BME280;44432;49.786;22.760;2023-06-04T02:16:26;99815.98;;;6.69;72.82
58662;BME280;44432;49.786;22.760;2023-06-04T02:18:56;99816.04;;;6.68;72.87
58662;BME280;44432;49.786;22.760;2023-06-04T02:21:28;99813.20;;;6.68;73.04
58662;BME280;44432;49.786;22.760;2023-06-04T02:23:58;99816.33;;;6.68;73.49
58662;BME280;44432;49.786;22.760;2023-06-04T02:26:29;99817.90;;;6.68;73.46
58662;BME280;44432;49.786;22.760;2023-06-04T02:29:00;99822.08;;;6.67;73.22
58662;BME280;44432;49.786;22.760;2023-06-04T02:31:31;99821.55;;;6.65;73.63
58662;BME280;44432;49.786;22.760;2023-06-04T02:34:02;99818.19;;;6.64;73.70
58662;BME280;44432;49.786;22.760;2023-06-04T02:36:33;99815.27;;;6.62;73.86
58662;BME280;44432;49.786;22.760;2023-06-04T02:39:04;99822.01;;;6.61;73.93
58662;BME280;44432;49.786;22.760;2023-06-04T02:41:35;99823.16;;;6.60;73.94
58662;BME280;44432;49.786;22.760;2023-06-04T02:44:05;99824.25;;;6.60;74.07
58662;BME280;44432;49.786;22.760;2023-06-04T02:46:36;99823.73;;;6.60;74.35
58662;BME280;44432;49.786;22.760;2023-06-04T02:49:09;99831.04;;;6.60;74.29
58662;BME280;44432;49.786;22.760;2023-06-04T02:51:44;99831.13;;;6.61;74.38
58662;BME280;44432;49.786;22.760;2023-06-04T02:54:15;99834.23;;;6.62;74.27
58662;BME280;44432;49.786;22.760;2023-06-04T02:56:46;99836.23;;;6.61;74.57
58662;BME280;44432;49.786;22.760;2023-06-04T02:59:18;99839.94;;;6.64;74.60
58662;BME280;44432;49.786;22.760;2023-06-04T03:01:49;99839.23;;;6.65;74.41
58662;BME280;44432;49.786;22.760;2023-06-04T03:04:20;99842.05;;;6.67;74.50
58662;BME280;44432;49.786;22.760;2023-06-04T03:06:50;99837.40;;;6.66;74.66
58662;BME280;44432;49.786;22.760;2023-06-04T03:09:26;99842.39;;;6.70;74.70
58662;BME280;44432;49.786;22.760;2023-06-04T03:11:58;99846.83;;;6.72;74.38
58662;BME280;44432;49.786;22.760;2023-06-04T03:14:31;99845.59;;;6.72;74.28
58662;BME280;44432;49.786;22.760;2023-06-04T03:17:03;99844.95;;;6.73;74.22
58662;BME280;44432;49.786;22.760;2023-06-04T03:19:39;99840.45;;;6.74;74.32
58662;BME280;44432;49.786;22.760;2023-06-04T03:22:10;99839.42;;;6.77;74.20
58662;BME280;44432;49.786;22.760;2023-06-04T03:24:42;99843.19;;;6.79;74.08
58662;BME280;44432;49.786;22.760;2023-06-04T03:27:13;99843.52;;;6.83;73.99
58662;BME280;44432;49.786;22.760;2023-06-04T03:29:43;99842.68;;;6.85;73.76
58662;BME280;44432;49.786;22.760;2023-06-04T03:32:15;99839.22;;;6.88;74.00
58662;BME280;44432;49.786;22.760;2023-06-04T03:34:46;99839.48;;;6.92;73.75
58662;BME280;44432;49.786;22.760;2023-06-04T03:37:17;99834.63;;;6.96;73.91
58662;BME280;44432;49.786;22.760;2023-06-04T03:39:48;99835.88;;;7.01;73.88
58662;BME280;44432;49.786;22.760;2023-06-04T03:42:19;99834.36;;;7.05;74.06
58662;BME280;44432;49.786;22.760;2023-06-04T03:44:49;99838.69;;;7.11;73.97
58662;BME280;44432;49.786;22.760;2023-06-04T03:47:20;99842.35;;;7.17;74.14
58662;BME280;44432;49.786;22.760;2023-06-04T03:49:50;99840.55;;;7.24;73.75
58662;BME280;44432;49.786;22.760;2023-06-04T03:52:21;99842.33;;;7.32;74.12
58662;BME280;44432;49.786;22.760;2023-06-04T03:54:52;99839.85;;;7.40;73.77
58662;BME280;44432;49.786;22.760;2023-06-04T03:57:22;99841.39;;;7.49;73.54
58662;BME280;44432;49.786;22.760;2023-06-04T03:59:53;99842.70;;;7.59;73.59
58662;BME280;44432;49.786;22.760;2023-06-04T04:02:23;99837.68;;;7.69;73.48
58662;BME280;44432;49.786;22.760;2023-06-04T04:04:55;99839.33;;;7.80;73.49
58662;BME280;44432;49.786;22.760;2023-06-04T04:07:26;99834.56;;;7.92;73.62
58662;BME280;44432;49.786;22.760;2023-06-04T04:09:57;99836.33;;;8.05;73.49
58662;BME280;44432;49.786;22.760;2023-06-04T04:12:27;99833.71;;;8.21;73.49
58662;BME280;44432;49.786;22.760;2023-06-04T04:14:58;99829.56;;;8.37;73.16
58662;BME280;44432;49.786;22.760;2023-06-04T04:17:29;99824.58;;;8.52;72.93
58662;BME280;44432;49.786;22.760;2023-06-04T04:20:00;99824.64;;;8.67;72.57
58662;BME280;44432;49.786;22.760;2023-06-04T04:22:35;99827.39;;;8.83;72.02
58662;BME280;44432;49.786;22.760;2023-06-04T04:25:06;99822.85;;;8.99;71.63
58662;BME280;44432;49.786;22.760;2023-06-04T04:27:37;99825.09;;;9.13;70.91
58662;BME280;44432;49.786;22.760;2023-06-04T04:30:11;99822.98;;;9.29;70.13
58662;BME280;44432;49.786;22.760;2023-06-04T04:32:43;99821.61;;;9.44;69.38
58662;BME280;44432;49.786;22.760;2023-06-04T04:35:18;99816.92;;;9.59;68.89
58662;BME280;44432;49.786;22.760;2023-06-04T04:37:48;99817.43;;;9.73;68.19
58662;BME280;44432;49.786;22.760;2023-06-04T04:40:19;99812.42;;;9.86;67.64
58662;BME280;44432;49.786;22.760;2023-06-04T04:42:50;99812.70;;;9.99;66.63
58662;BME280;44432;49.786;22.760;2023-06-04T04:45:20;99812.67;;;10.10;66.05
58662;BME280;44432;49.786;22.760;2023-06-04T04:47:51;99809.66;;;10.20;65.08
58662;BME280;44432;49.786;22.760;2023-06-04T04:50:21;99807.07;;;10.28;64.45
58662;BME280;44432;49.786;22.760;2023-06-04T04:52:52;99808.47;;;10.34;63.91
58662;BME280;44432;49.786;22.760;2023-06-04T04:55:23;99812.01;;;10.40;63.49
58662;BME280;44432;49.786;22.760;2023-06-04T04:57:53;99812.30;;;10.47;63.43
58662;BME280;44432;49.786;22.760;2023-06-04T05:00:24;99808.41;;;10.55;62.96
58662;BME280;44432;49.786;22.760;2023-06-04T05:02:55;99810.27;;;10.64;62.62
58662;BME280;44432;49.786;22.760;2023-06-04T05:05:25;99807.20;;;10.71;62.07
58662;BME280;44432;49.786;22.760;2023-06-04T05:07:56;99806.77;;;10.77;61.64
58662;BME280;44432;49.786;22.760;2023-06-04T05:10:27;99806.05;;;10.84;61.30
58662;BME280;44432;49.786;22.760;2023-06-04T05:12:59;99809.64;;;10.93;60.90
58662;BME280;44432;49.786;22.760;2023-06-04T05:15:29;99801.15;;;11.01;60.60
58662;BME280;44432;49.786;22.760;2023-06-04T05:18:00;99800.42;;;11.07;60.38
58662;BME280;44432;49.786;22.760;2023-06-04T05:20:32;99801.84;;;11.14;60.02
58662;BME280;44432;49.786;22.760;2023-06-04T05:23:04;99797.74;;;11.22;59.89
58662;BME280;44432;49.786;22.760;2023-06-04T05:25:35;99794.69;;;11.29;59.37
58662;BME280;44432;49.786;22.760;2023-06-04T05:28:05;99800.54;;;11.38;59.33
58662;BME280;44432;49.786;22.760;2023-06-04T05:30:36;99801.73;;;11.48;59.04
58662;BME280;44432;49.786;22.760;2023-06-04T05:33:10;99799.39;;;11.57;58.78
58662;BME280;44432;49.786;22.760;2023-06-04T05:35:47;99800.08;;;11.64;58.52
58662;BME280;44432;49.786;22.760;2023-06-04T05:38:18;99797.49;;;11.70;58.39
58662;BME280;44432;49.786;22.760;2023-06-04T05:40:49;99796.81;;;11.80;57.97
58662;BME280;44432;49.786;22.760;2023-06-04T05:43:21;99801.02;;;11.88;57.84
58662;BME280;44432;49.786;22.760;2023-06-04T05:45:52;99796.97;;;11.96;57.58
58662;BME280;44432;49.786;22.760;2023-06-04T05:48:22;99794.66;;;12.05;57.60
58662;BME280;44432;49.786;22.760;2023-06-04T05:50:54;99791.74;;;12.12;57.33
58662;BME280;44432;49.786;22.760;2023-06-04T05:53:24;99790.00;;;12.21;57.19
58662;BME280;44432;49.786;22.760;2023-06-04T05:55:55;99788.95;;;12.29;57.14
58662;BME280;44432;49.786;22.760;2023-06-04T05:58:26;99789.80;;;12.37;57.02
58662;BME280;44432;49.786;22.760;2023-06-04T06:00:56;99791.23;;;12.44;56.72
58662;BME280;44432;49.786;22.760;2023-06-04T06:03:27;99788.15;;;12.51;56.45
58662;BME280;44432;49.786;22.760;2023-06-04T06:05:58;99787.50;;;12.59;56.59
58662;BME280;44432;49.786;22.760;2023-06-04T06:08:29;99789.13;;;12.71;56.39
58662;BME280;44432;49.786;22.760;2023-06-04T06:11:00;99788.69;;;12.82;56.16
58662;BME280;44432;49.786;22.760;2023-06-04T06:13:31;99790.49;;;12.87;55.52
58662;BME280;44432;49.786;22.760;2023-06-04T06:16:02;99785.92;;;12.93;55.56
58662;BME280;44432;49.786;22.760;2023-06-04T06:18:33;99786.23;;;13.01;55.37
58662;BME280;44432;49.786;22.760;2023-06-04T06:21:04;99790.08;;;13.10;55.24
58662;BME280;44432;49.786;22.760;2023-06-04T06:23:35;99794.27;;;13.18;55.24
58662;BME280;44432;49.786;22.760;2023-06-04T06:26:05;99794.39;;;13.21;54.85
58662;BME280;44432;49.786;22.760;2023-06-04T06:28:37;99790.79;;;13.28;55.08
58662;BME280;44432;49.786;22.760;2023-06-04T06:31:08;99788.26;;;13.36;54.86
58662;BME280;44432;49.786;22.760;2023-06-04T06:33:39;99785.52;;;13.46;54.58
58662;BME280;44432;49.786;22.760;2023-06-04T06:36:11;99789.35;;;13.56;54.32
58662;BME280;44432;49.786;22.760;2023-06-04T06:38:42;99785.21;;;13.65;53.98
58662;BME280;44432;49.786;22.760;2023-06-04T06:41:13;99777.05;;;13.72;54.23
58662;BME280;44432;49.786;22.760;2023-06-04T06:43:43;99779.86;;;13.85;53.79
58662;BME280;44432;49.786;22.760;2023-06-04T06:46:14;99778.77;;;13.98;53.87
58662;BME280;44432;49.786;22.760;2023-06-04T06:48:45;99778.27;;;14.13;53.66
58662;BME280;44432;49.786;22.760;2023-06-04T06:51:16;99776.27;;;14.29;53.22
58662;BME280;44432;49.786;22.760;2023-06-04T06:53:48;99774.40;;;14.42;52.75
58662;BME280;44432;49.786;22.760;2023-06-04T06:56:19;99773.25;;;14.54;52.41
58662;BME280;44432;49.786;22.760;2023-06-04T06:58:50;99772.73;;;14.67;52.09
58662;BME280;44432;49.786;22.760;2023-06-04T07:01:20;99768.63;;;14.82;51.58
58662;BME280;44432;49.786;22.760;2023-06-04T07:03:51;99773.18;;;14.96;51.33
58662;BME280;44432;49.786;22.760;2023-06-04T07:06:22;99769.94;;;15.10;50.97
58662;BME280;44432;49.786;22.760;2023-06-04T07:08:52;99766.33;;;15.23;50.44
58662;BME280;44432;49.786;22.760;2023-06-04T07:11:23;99761.94;;;15.35;49.96
58662;BME280;44432;49.786;22.760;2023-06-04T07:13:55;99763.50;;;15.44;49.51
58662;BME280;44432;49.786;22.760;2023-06-04T07:16:25;99760.06;;;15.56;49.16
58662;BME280;44432;49.786;22.760;2023-06-04T07:18:56;99752.29;;;15.69;48.93
58662;BME280;44432;49.786;22.760;2023-06-04T07:21:27;99751.95;;;15.81;48.83
58662;BME280;44432;49.786;22.760;2023-06-04T07:23:57;99749.33;;;15.96;48.61
58662;BME280;44432;49.786;22.760;2023-06-04T07:26:28;99747.94;;;16.12;48.17
58662;BME280;44432;49.786;22.760;2023-06-04T07:29:00;99747.33;;;16.27;47.92
58662;BME280;44432;49.786;22.760;2023-06-04T07:31:30;99747.02;;;16.45;47.66
58662;BME280;44432;49.786;22.760;2023-06-04T07:34:01;99750.44;;;16.64;46.90
58662;BME280;44432;49.786;22.760;2023-06-04T07:36:31;99754.30;;;16.80;45.49
58662;BME280;44432;49.786;22.760;2023-06-04T07:39:03;99753.96;;;16.92;44.91
58662;BME280;44432;49.786;22.760;2023-06-04T07:41:34;99747.98;;;17.02;44.34
58662;BME280;44432;49.786;22.760;2023-06-04T07:44:04;99749.05;;;17.12;44.21
58662;BME280;44432;49.786;22.760;2023-06-04T07:46:35;99747.34;;;17.21;43.73
58662;BME280;44432;49.786;22.760;2023-06-04T07:49:06;99748.67;;;17.28;43.46
58662;BME280;44432;49.786;22.760;2023-06-04T07:51:36;99746.46;;;17.35;43.40
58662;BME280;44432;49.786;22.760;2023-06-04T07:54:07;99746.64;;;17.43;43.42
58662;BME280;44432;49.786;22.760;2023-06-04T07:56:40;99744.65;;;17.54;43.52
58662;BME280;44432;49.786;22.760;2023-06-04T07:59:10;99748.80;;;17.69;43.23
58662;BME280;44432;49.786;22.760;2023-06-04T08:01:41;99747.84;;;17.81;42.48
58662;BME280;44432;49.786;22.760;2023-06-04T08:04:12;99746.89;;;17.90;41.89
58662;BME280;44432;49.786;22.760;2023-06-04T08:06:43;99745.24;;;18.00;41.61
58662;BME280;44432;49.786;22.760;2023-06-04T08:09:15;99746.38;;;18.15;41.47
58662;BME280;44432;49.786;22.760;2023-06-04T08:11:46;99745.05;;;18.31;41.13
58662;BME280;44432;49.786;22.760;2023-06-04T08:14:18;99746.25;;;18.44;40.86
58662;BME280;44432;49.786;22.760;2023-06-04T08:16:49;99744.73;;;18.53;40.50
58662;BME280;44432;49.786;22.760;2023-06-04T08:19:20;99745.23;;;18.59;40.46
58662;BME280;44432;49.786;22.760;2023-06-04T08:21:52;99745.07;;;18.69;40.25
58662;BME280;44432;49.786;22.760;2023-06-04T08:24:23;99745.27;;;18.75;40.11
58662;BME280;44432;49.786;22.760;2023-06-04T08:26:54;99748.14;;;18.79;40.18
58662;BME280;44432;49.786;22.760;2023-06-04T08:29:25;99755.70;;;18.88;39.99
58662;BME280;44432;49.786;22.760;2023-06-04T08:31:55;99756.49;;;18.92;39.55
58662;BME280;44432;49.786;22.760;2023-06-04T08:34:26;99753.68;;;18.97;39.50
58662;BME280;44432;49.786;22.760;2023-06-04T08:36:57;99759.40;;;19.02;39.44
58662;BME280;44432;49.786;22.760;2023-06-04T08:39:27;99758.27;;;19.08;39.34
58662;BME280;44432;49.786;22.760;2023-06-04T08:42:01;99760.70;;;19.12;39.51
58662;BME280;44432;49.786;22.760;2023-06-04T08:44:34;99760.86;;;19.17;39.39
58662;BME280;44432;49.786;22.760;2023-06-04T08:47:06;99759.15;;;19.19;39.26
58662;BME280;44432;49.786;22.760;2023-06-04T08:49:41;99751.09;;;19.22;39.36
58662;BME280;44432;49.786;22.760;2023-06-04T08:52:13;99750.00;;;19.27;39.38
58662;BME280;44432;49.786;22.760;2023-06-04T08:54:44;99749.20;;;19.36;39.57
58662;BME280;44432;49.786;22.760;2023-06-04T08:57:15;99749.81;;;19.47;39.64
58662;BME280;44432;49.786;22.760;2023-06-04T08:59:47;99746.21;;;19.59;39.58
58662;BME280;44432;49.786;22.760;2023-06-04T09:02:18;99744.83;;;19.74;39.37
58662;BME280;44432;49.786;22.760;2023-06-04T09:04:50;99746.79;;;19.85;39.28
58662;BME280;44432;49.786;22.760;2023-06-04T09:07:21;99744.40;;;19.94;39.02
58662;BME280;44432;49.786;22.760;2023-06-04T09:09:52;99747.53;;;19.96;38.55
58662;BME280;44432;49.786;22.760;2023-06-04T09:12:25;99749.02;;;19.97;38.03
58662;BME280;44432;49.786;22.760;2023-06-04T09:14:55;99744.65;;;20.00;38.03
58662;BME280;44432;49.786;22.760;2023-06-04T09:17:27;99739.34;;;19.99;37.71
58662;BME280;44432;49.786;22.760;2023-06-04T09:19:58;99744.65;;;20.01;37.61
58662;BME280;44432;49.786;22.760;2023-06-04T09:22:36;99745.74;;;20.08;37.43
58662;BME280;44432;49.786;22.760;2023-06-04T09:25:20;99745.42;;;20.09;37.04
58662;BME280;44432;49.786;22.760;2023-06-04T09:27:52;99746.89;;;20.13;36.68
58662;BME280;44432;49.786;22.760;2023-06-04T09:30:23;99746.91;;;20.18;36.58
58662;BME280;44432;49.786;22.760;2023-06-04T09:32:54;99744.73;;;20.32;36.61
58662;BME280;44432;49.786;22.760;2023-06-04T09:35:24;99746.52;;;20.44;36.47
58662;BME280;44432;49.786;22.760;2023-06-04T09:37:56;99738.86;;;20.48;36.07
58662;BME280;44432;49.786;22.760;2023-06-04T09:40:36;99738.11;;;20.54;36.34
58662;BME280;44432;49.786;22.760;2023-06-04T09:43:08;99735.66;;;20.67;36.59
58662;BME280;44432;49.786;22.760;2023-06-04T09:45:41;99738.92;;;20.82;36.45
58662;BME280;44432;49.786;22.760;2023-06-04T09:48:20;99739.83;;;20.94;36.16
58662;BME280;44432;49.786;22.760;2023-06-04T09:50:51;99737.50;;;20.98;35.93
58662;BME280;44432;49.786;22.760;2023-06-04T09:53:21;99740.08;;;21.01;35.91
58662;BME280;44432;49.786;22.760;2023-06-04T09:56:02;99737.73;;;21.01;35.88
58662;BME280;44432;49.786;22.760;2023-06-04T09:58:34;99739.55;;;20.96;35.46
58662;BME280;44432;49.786;22.760;2023-06-04T10:01:06;99740.46;;;20.88;35.50
58662;BME280;44432;49.786;22.760;2023-06-04T10:03:37;99736.49;;;20.85;35.67
58662;BME280;44432;49.786;22.760;2023-06-04T10:06:11;99736.98;;;20.90;36.23
58662;BME280;44432;49.786;22.760;2023-06-04T10:08:45;99743.41;;;20.96;35.87
58662;BME280;44432;49.786;22.760;2023-06-04T10:11:26;99739.13;;;20.98;36.02
58662;BME280;44432;49.786;22.760;2023-06-04T10:14:06;99735.20;;;21.02;35.77
58662;BME280;44432;49.786;22.760;2023-06-04T10:16:41;99739.33;;;21.05;35.83
58662;BME280;44432;49.786;22.760;2023-06-04T10:19:12;99734.77;;;21.03;35.41
58662;BME280;44432;49.786;22.760;2023-06-04T10:21:45;99731.02;;;20.99;35.37
58662;BME280;44432;49.786;22.760;2023-06-04T10:24:17;99729.63;;;20.98;35.90
58662;BME280;44432;49.786;22.760;2023-06-04T10:26:49;99728.01;;;21.05;35.96
58662;BME280;44432;49.786;22.760;2023-06-04T10:29:21;99723.05;;;21.14;36.19
58662;BME280;44432;49.786;22.760;2023-06-04T10:31:56;99723.98;;;21.23;36.28
58662;BME280;44432;49.786;22.760;2023-06-04T10:34:27;99716.61;;;21.33;35.78
58662;BME280;44432;49.786;22.760;2023-06-04T10:36:58;99715.73;;;21.36;35.46
58662;BME280;44432;49.786;22.760;2023-06-04T10:39:30;99705.11;;;21.35;35.41
58662;BME280;44432;49.786;22.760;2023-06-04T10:42:03;99711.55;;;21.36;35.69
58662;BME280;44432;49.786;22.760;2023-06-04T10:44:48;99711.53;;;21.42;35.38
58662;BME280;44432;49.786;22.760;2023-06-04T10:47:25;99711.04;;;21.46;35.11
58662;BME280;44432;49.786;22.760;2023-06-04T10:50:06;99704.20;;;21.51;35.14
58662;BME280;44432;49.786;22.760;2023-06-04T10:52:37;99706.88;;;21.54;35.19
58662;BME280;44432;49.786;22.760;2023-06-04T10:55:09;99703.84;;;21.60;35.20
58662;BME280;44432;49.786;22.760;2023-06-04T10:57:40;99706.47;;;21.65;35.17
58662;BME280;44432;49.786;22.760;2023-06-04T11:00:21;99700.36;;;21.70;35.10
58662;BME280;44432;49.786;22.760;2023-06-04T11:02:53;99702.98;;;21.74;34.75
58662;BME280;44432;49.786;22.760;2023-06-04T11:05:35;99705.63;;;21.72;34.29
58662;BME280;44432;49.786;22.760;2023-06-04T11:08:06;99703.86;;;21.71;34.29
58662;BME280;44432;49.786;22.760;2023-06-04T11:10:40;99703.64;;;21.73;34.28
58662;BME280;44432;49.786;22.760;2023-06-04T11:13:11;99699.59;;;21.77;34.46
58662;BME280;44432;49.786;22.760;2023-06-04T11:15:43;99698.77;;;21.81;34.30
58662;BME280;44432;49.786;22.760;2023-06-04T11:18:19;99692.36;;;21.80;33.56
58662;BME280;44432;49.786;22.760;2023-06-04T11:20:59;99690.30;;;21.63;33.56
58662;BME280;44432;49.786;22.760;2023-06-04T11:23:29;99694.55;;;21.59;33.78
58662;BME280;44432;49.786;22.760;2023-06-04T11:26:00;99694.73;;;21.57;34.00
58662;BME280;44432;49.786;22.760;2023-06-04T11:28:31;99693.86;;;21.57;33.98
58662;BME280;44432;49.786;22.760;2023-06-04T11:31:02;99694.86;;;21.62;34.25
58662;BME280;44432;49.786;22.760;2023-06-04T11:33:44;99699.41;;;21.69;34.18
58662;BME280;44432;49.786;22.760;2023-06-04T11:36:25;99700.83;;;21.76;34.05
58662;BME280;44432;49.786;22.760;2023-06-04T11:38:57;99700.67;;;21.83;33.92
58662;BME280;44432;49.786;22.760;2023-06-04T11:41:30;99700.49;;;21.84;33.91
58662;BME280;44432;49.786;22.760;2023-06-04T11:44:02;99701.06;;;21.89;33.87
58662;BME280;44432;49.786;22.760;2023-06-04T11:46:35;99709.41;;;21.97;33.75
58662;BME280;44432;49.786;22.760;2023-06-04T11:49:06;99703.65;;;22.00;33.61
58662;BME280;44432;49.786;22.760;2023-06-04T11:51:37;99707.73;;;22.06;33.58
58662;BME280;44432;49.786;22.760;2023-06-04T11:54:08;99705.64;;;22.14;33.62
58662;BME280;44432;49.786;22.760;2023-06-04T11:56:39;99704.99;;;22.23;33.51
58662;BME280;44432;49.786;22.760;2023-06-04T11:59:10;99703.42;;;22.25;33.27
58662;BME280;44432;49.786;22.760;2023-06-04T12:01:41;99706.15;;;22.20;33.03
58662;BME280;44432;49.786;22.760;2023-06-04T12:04:16;99703.59;;;22.15;33.21
58662;BME280;44432;49.786;22.760;2023-06-04T12:06:54;99699.95;;;22.10;33.38
58662;BME280;44432;49.786;22.760;2023-06-04T12:09:28;99702.54;;;22.11;33.37
58662;BME280;44432;49.786;22.760;2023-06-04T12:12:00;99704.88;;;22.05;33.11
58662;BME280;44432;49.786;22.760;2023-06-04T12:14:32;99703.52;;;21.94;33.37
58662;BME280;44432;49.786;22.760;2023-06-04T12:17:07;99704.27;;;21.93;33.50
58662;BME280;44432;49.786;22.760;2023-06-04T12:19:47;99700.27;;;21.96;33.63
58662;BME280;44432;49.786;22.760;2023-06-04T12:22:18;99702.73;;;21.99;33.58
58662;BME280;44432;49.786;22.760;2023-06-04T12:24:51;99703.06;;;22.01;33.57
58662;BME280;44432;49.786;22.760;2023-06-04T12:27:24;99701.77;;;22.04;33.41
58662;BME280;44432;49.786;22.760;2023-06-04T12:30:03;99704.27;;;22.07;33.40
58662;BME280;44432;49.786;22.760;2023-06-04T12:32:37;99710.61;;;22.10;33.50
58662;BME280;44432;49.786;22.760;2023-06-04T12:35:09;99709.04;;;22.14;33.40
58662;BME280;44432;49.786;22.760;2023-06-04T12:37:39;99708.67;;;22.20;33.12
58662;BME280;44432;49.786;22.760;2023-06-04T12:40:11;99707.21;;;22.12;32.75
58662;BME280;44432;49.786;22.760;2023-06-04T12:42:42;99705.80;;;22.05;33.07
58662;BME280;44432;49.786;22.760;2023-06-04T12:45:13;99710.09;;;22.06;33.39
58662;BME280;44432;49.786;22.760;2023-06-04T12:47:44;99707.81;;;22.10;33.41
58662;BME280;44432;49.786;22.760;2023-06-04T12:50:16;99707.30;;;22.15;33.39
58662;BME280;44432;49.786;22.760;2023-06-04T12:52:47;99703.57;;;22.18;32.98
58662;BME280;44432;49.786;22.760;2023-06-04T12:55:19;99699.74;;;22.21;33.17
58662;BME280;44432;49.786;22.760;2023-06-04T12:57:49;99698.98;;;22.29;33.34
58662;BME280;44432;49.786;22.760;2023-06-04T13:00:20;99694.89;;;22.39;33.27
58662;BME280;44432;49.786;22.760;2023-06-04T13:02:51;99692.30;;;22.47;32.96
58662;BME280;44432;49.786;22.760;2023-06-04T13:05:22;99692.45;;;22.56;33.04
58662;BME280;44432;49.786;22.760;2023-06-04T13:07:52;99692.80;;;22.65;33.06
58662;BME280;44432;49.786;22.760;2023-06-04T13:10:23;99692.08;;;22.77;32.80
58662;BME280;44432;49.786;22.760;2023-06-04T13:12:54;99692.68;;;22.83;32.58
58662;BME280;44432;49.786;22.760;2023-06-04T13:15:25;99696.88;;;22.91;32.56
58662;BME280;44432;49.786;22.760;2023-06-04T13:17:57;99696.33;;;22.99;32.40